createdAt,value
2023-08-23T00:03:40.313Z,23.88
2023-08-23T00:06:08.312Z,23.88
2023-08-23T00:08:36.288Z,23.85
2023-08-23T00:11:04.323Z,23.83
2023-08-23T00:13:32.314Z,23.82
2023-08-23T00:16:00.269Z,23.79
2023-08-23T00:18:28.232Z,23.73
2023-08-23T00:20:57.533Z,23.76
2023-08-23T00:23:25.550Z,23.76
2023-08-23T00:25:53.570Z,23.78
2023-08-23T00:28:21.596Z,23.71
2023-08-23T00:30:53.469Z,23.77
2023-08-23T00:33:21.713Z,23.79
2023-08-23T00:35:49.815Z,23.73
2023-08-23T00:38:19.271Z,23.78
2023-08-23T00:40:47.268Z,23.74
2023-08-23T00:43:15.414Z,23.77
2023-08-23T00:45:43.711Z,23.78
2023-08-23T00:48:13.361Z,23.78
2023-08-23T00:50:42.040Z,23.80
2023-08-23T00:53:10.285Z,23.71
2023-08-23T00:55:39.680Z,23.55
2023-08-23T00:58:07.653Z,23.51
2023-08-23T01:00:35.652Z,23.50
2023-08-23T01:03:03.655Z,23.46
2023-08-23T01:05:35.852Z,23.44
2023-08-23T01:08:05.926Z,23.46
2023-08-23T01:10:37.302Z,23.48
2023-08-23T01:13:10.205Z,23.47
2023-08-23T01:15:38.254Z,23.45
2023-08-23T01:18:06.734Z,23.47
2023-08-23T01:20:34.734Z,23.51
2023-08-23T01:23:11.631Z,23.54
2023-08-23T01:25:41.726Z,23.52
2023-08-23T01:28:09.765Z,23.54
2023-08-23T01:30:37.732Z,23.54
2023-08-23T01:33:08.238Z,23.55
2023-08-23T01:35:40.263Z,23.53
2023-08-23T01:38:09.638Z,23.55
2023-08-23T01:40:37.693Z,23.58
2023-08-23T01:43:06.019Z,23.52
2023-08-23T01:45:34.064Z,23.53
2023-08-23T01:48:02.077Z,23.48
2023-08-23T01:50:30.207Z,23.54
2023-08-23T01:52:58.183Z,23.56
2023-08-23T01:55:27.997Z,23.58
2023-08-23T01:57:55.950Z,23.60
2023-08-23T02:00:23.878Z,23.66
2023-08-23T02:02:51.916Z,23.65
2023-08-23T02:05:19.957Z,23.61
2023-08-23T02:07:48.013Z,23.55
2023-08-23T02:10:16.077Z,23.36
2023-08-23T02:12:45.430Z,23.25
2023-08-23T02:15:13.404Z,23.09
2023-08-23T02:17:41.453Z,22.98
2023-08-23T02:20:10.022Z,22.75
2023-08-23T02:22:38.035Z,22.73
2023-08-23T02:25:06.748Z,22.59
2023-08-23T02:27:34.680Z,22.54
2023-08-23T02:30:04.156Z,22.50
2023-08-23T02:32:32.215Z,22.48
2023-08-23T02:35:00.402Z,22.42
2023-08-23T02:37:28.332Z,22.40
2023-08-23T02:39:59.073Z,22.38
2023-08-23T02:42:27.524Z,22.36
2023-08-23T02:44:55.529Z,22.34
2023-08-23T02:47:25.066Z,22.31
2023-08-23T02:49:53.072Z,22.26
2023-08-23T02:52:21.304Z,22.22
2023-08-23T02:54:49.294Z,22.18
2023-08-23T02:57:17.281Z,22.12
2023-08-23T02:59:45.387Z,22.06
2023-08-23T03:02:13.469Z,21.98
2023-08-23T03:04:42.910Z,21.92
2023-08-23T03:07:10.946Z,21.90
2023-08-23T03:09:38.930Z,21.84
2023-08-23T03:12:07.761Z,21.74
2023-08-23T03:14:35.783Z,21.71
2023-08-23T03:17:03.755Z,21.71
2023-08-23T03:19:32.279Z,21.63
2023-08-23T03:22:01.906Z,21.67
2023-08-23T03:24:29.921Z,21.64
2023-08-23T03:26:57.879Z,21.62
2023-08-23T03:29:26.126Z,21.60
2023-08-23T03:31:54.089Z,21.58
2023-08-23T03:34:22.051Z,21.56
2023-08-23T03:36:50.991Z,21.58
2023-08-23T03:39:20.348Z,21.47
2023-08-23T03:41:49.043Z,21.45
2023-08-23T03:44:17.054Z,21.42
2023-08-23T03:46:45.081Z,21.38
2023-08-23T03:49:13.069Z,21.38
2023-08-23T03:51:41.118Z,21.41
2023-08-23T03:54:09.067Z,21.46
2023-08-23T03:56:38.703Z,21.51
2023-08-23T03:59:06.701Z,21.59
2023-08-23T04:01:35.093Z,21.56
2023-08-23T04:04:03.224Z,21.59
2023-08-23T04:06:31.265Z,21.72
2023-08-23T04:08:59.295Z,21.79
2023-08-23T04:11:27.305Z,21.92
2023-08-23T04:13:56.631Z,22.07
2023-08-23T04:16:24.737Z,22.20
2023-08-23T04:18:52.716Z,22.34
2023-08-23T04:21:20.708Z,22.57
2023-08-23T04:23:48.729Z,22.76
2023-08-23T04:26:16.738Z,23.23
2023-08-23T04:28:44.706Z,24.12
2023-08-23T04:31:14.065Z,25.40
2023-08-23T04:33:43.213Z,26.54
2023-08-23T04:36:11.207Z,27.56
2023-08-23T04:38:39.207Z,28.53
2023-08-23T04:41:07.229Z,29.34
2023-08-23T04:43:35.224Z,29.80
2023-08-23T04:46:03.273Z,30.20
2023-08-23T04:48:32.763Z,30.94
2023-08-23T04:51:00.794Z,31.67
2023-08-23T04:53:28.884Z,32.30
2023-08-23T04:55:58.046Z,32.79
2023-08-23T04:58:28.615Z,33.29
2023-08-23T05:00:59.906Z,33.96
2023-08-23T05:03:27.976Z,34.81
2023-08-23T05:05:57.311Z,35.25
2023-08-23T05:08:25.304Z,36.01
2023-08-23T05:10:53.927Z,36.21
2023-08-23T05:13:21.931Z,36.89
2023-08-23T05:15:53.475Z,37.36
2023-08-23T05:18:21.575Z,37.52
2023-08-23T05:20:54.004Z,37.83
2023-08-23T05:23:23.499Z,38.19
2023-08-23T05:25:52.385Z,38.66
2023-08-23T05:28:20.610Z,39.15
2023-08-23T05:30:48.617Z,39.38
2023-08-23T05:33:16.661Z,39.85
2023-08-23T05:35:45.167Z,40.09
2023-08-23T05:38:13.165Z,40.26
2023-08-23T05:40:42.505Z,40.11
2023-08-23T05:43:10.557Z,40.43
2023-08-23T05:45:38.599Z,41.00
2023-08-23T05:48:07.462Z,41.16
2023-08-23T05:50:35.707Z,41.33
2023-08-23T05:53:10.235Z,41.42
2023-08-23T05:55:38.699Z,41.57
2023-08-23T05:58:08.052Z,41.70
2023-08-23T06:00:36.282Z,42.49
2023-08-23T06:03:04.410Z,41.88
2023-08-23T06:05:32.409Z,41.52
2023-08-23T06:08:00.376Z,41.24
2023-08-23T06:10:28.381Z,41.79
2023-08-23T06:12:56.344Z,41.14
2023-08-23T06:15:25.960Z,40.45
2023-08-23T06:17:54.423Z,39.43
2023-08-23T06:20:22.407Z,39.87
2023-08-23T06:22:50.524Z,40.74
2023-08-23T06:25:18.462Z,40.29
2023-08-23T06:27:46.853Z,40.85
2023-08-23T06:30:17.354Z,41.04
2023-08-23T06:32:48.508Z,41.46
2023-08-23T06:35:17.256Z,42.06
2023-08-23T06:37:45.714Z,41.59
2023-08-23T06:40:14.127Z,41.16
2023-08-23T06:42:42.241Z,40.22
2023-08-23T06:45:11.048Z,39.79
2023-08-23T06:47:39.279Z,39.97
2023-08-23T06:50:12.900Z,40.47
2023-08-23T06:52:42.696Z,40.45
2023-08-23T06:55:10.987Z,40.56
2023-08-23T06:57:40.942Z,40.08
2023-08-23T07:00:10.124Z,39.89
2023-08-23T07:02:38.156Z,40.08
2023-08-23T07:05:08.279Z,40.60
2023-08-23T07:07:36.232Z,41.18
2023-08-23T07:10:14.344Z,41.16
2023-08-23T07:12:52.639Z,42.10
2023-08-23T07:15:20.737Z,41.81
2023-08-23T07:17:49.074Z,40.77
2023-08-23T07:20:18.725Z,40.72
2023-08-23T07:22:46.696Z,40.03
2023-08-23T07:25:14.624Z,39.79
2023-08-23T07:27:42.641Z,39.04
2023-08-23T07:30:11.565Z,39.29
2023-08-23T07:32:39.580Z,39.08
2023-08-23T07:35:09.193Z,38.70
2023-08-23T07:37:39.571Z,38.54
2023-08-23T07:40:10.933Z,38.33
2023-08-23T07:42:39.229Z,38.19
2023-08-23T07:45:08.347Z,37.88
2023-08-23T07:47:36.645Z,37.89
2023-08-23T07:50:05.509Z,37.73
2023-08-23T07:52:33.630Z,37.79
2023-08-23T07:55:02.971Z,37.94
2023-08-23T07:57:31.078Z,37.68
2023-08-23T08:00:01.134Z,38.16
2023-08-23T08:02:32.517Z,39.12
2023-08-23T08:05:00.790Z,39.94
2023-08-23T08:08:00.739Z,40.23
2023-08-23T08:10:21.212Z,40.96
2023-08-23T08:12:49.228Z,41.54
2023-08-23T08:15:17.568Z,41.99
2023-08-23T08:17:46.180Z,42.32
2023-08-23T08:20:14.610Z,42.13
2023-08-23T08:22:43.330Z,41.80
2023-08-23T08:25:14.164Z,41.79
2023-08-23T08:27:43.999Z,41.59
2023-08-23T08:30:12.696Z,41.45
2023-08-23T08:32:40.773Z,41.09
2023-08-23T08:35:09.550Z,40.24
2023-08-23T08:37:37.562Z,39.70
2023-08-23T08:40:07.861Z,39.11
2023-08-23T08:42:35.995Z,38.71
2023-08-23T08:45:06.397Z,38.51
2023-08-23T08:47:34.440Z,38.53
2023-08-23T08:50:02.506Z,38.40
2023-08-23T08:52:30.903Z,38.10
2023-08-23T08:54:59.886Z,37.81
2023-08-23T08:57:28.606Z,37.83
2023-08-23T08:59:56.828Z,37.98
2023-08-23T09:02:26.827Z,38.24
2023-08-23T09:04:54.762Z,38.24
2023-08-23T09:07:22.754Z,38.34
2023-08-23T09:09:50.794Z,38.57
2023-08-23T09:12:18.877Z,38.80
2023-08-23T09:14:50.567Z,38.87
2023-08-23T09:17:24.101Z,38.86
2023-08-23T09:19:53.749Z,38.76
2023-08-23T09:22:22.169Z,38.85
2023-08-23T09:24:50.501Z,39.23
2023-08-23T09:27:31.132Z,39.48
2023-08-23T09:30:06.329Z,39.68
2023-08-23T09:32:34.508Z,39.76
2023-08-23T09:35:12.725Z,40.06
2023-08-23T09:37:43.922Z,40.20
2023-08-23T09:40:21.761Z,40.23
2023-08-23T09:42:49.791Z,40.55
2023-08-23T09:45:19.410Z,40.77
2023-08-23T09:47:49.487Z,40.96
2023-08-23T09:50:19.928Z,41.03
2023-08-23T09:52:48.964Z,41.34
2023-08-23T09:55:16.965Z,41.69
2023-08-23T09:57:45.329Z,41.97
2023-08-23T10:00:14.305Z,42.13
2023-08-23T10:02:42.375Z,42.23
2023-08-23T10:05:12.936Z,41.96
2023-08-23T10:07:42.482Z,42.20
2023-08-23T10:10:11.523Z,42.62
2023-08-23T10:12:41.387Z,42.79
2023-08-23T10:15:10.750Z,42.62
2023-08-23T10:17:38.743Z,43.14
2023-08-23T10:20:08.061Z,43.24
2023-08-23T10:22:36.713Z,43.52
2023-08-23T10:25:16.454Z,44.03
2023-08-23T10:27:47.316Z,43.72
2023-08-23T10:30:20.863Z,43.49
2023-08-23T10:32:49.338Z,43.68
2023-08-23T10:35:29.915Z,44.02
2023-08-23T10:37:58.822Z,43.98
2023-08-23T10:40:30.663Z,44.28
2023-08-23T10:42:58.684Z,43.92
2023-08-23T10:45:26.846Z,43.89
2023-08-23T10:47:54.991Z,43.81
2023-08-23T10:50:23.072Z,43.83
2023-08-23T10:52:51.472Z,44.11
2023-08-23T10:55:19.687Z,43.81
2023-08-23T10:57:49.306Z,43.81
2023-08-23T11:00:18.421Z,44.30
2023-08-23T11:02:46.402Z,45.06
2023-08-23T11:05:14.388Z,44.83
2023-08-23T11:07:42.380Z,45.08
2023-08-23T11:10:11.565Z,45.30
2023-08-23T11:12:40.478Z,45.21
2023-08-23T11:15:10.840Z,44.98
2023-08-23T11:17:39.130Z,44.80
2023-08-23T11:20:09.619Z,44.30
2023-08-23T11:22:37.660Z,43.99
2023-08-23T11:25:06.208Z,44.11
2023-08-23T11:27:34.808Z,44.50
2023-08-23T11:30:03.949Z,44.59
2023-08-23T11:32:33.568Z,44.48
2023-08-23T11:35:02.231Z,43.63
2023-08-23T11:37:30.571Z,43.13
2023-08-23T11:39:58.684Z,43.28
2023-08-23T11:42:27.408Z,43.32
2023-08-23T11:44:56.334Z,42.87
2023-08-23T11:47:26.697Z,41.86
2023-08-23T11:49:56.081Z,41.84
2023-08-23T11:52:24.125Z,42.01
2023-08-23T11:54:52.602Z,42.60
2023-08-23T11:57:20.623Z,42.45
2023-08-23T11:59:48.770Z,42.57
2023-08-23T12:02:16.769Z,42.82
2023-08-23T12:04:45.366Z,42.83
2023-08-23T12:07:14.917Z,43.41
2023-08-23T12:09:42.861Z,43.77
2023-08-23T12:12:10.936Z,43.82
2023-08-23T12:14:38.903Z,43.70
2023-08-23T12:17:07.024Z,43.60
2023-08-23T12:19:37.781Z,43.73
2023-08-23T12:22:07.854Z,43.67
2023-08-23T12:24:37.287Z,43.75
2023-08-23T12:27:06.171Z,43.45
2023-08-23T12:29:34.221Z,42.96
2023-08-23T12:32:02.303Z,43.21
2023-08-23T12:34:30.325Z,43.15
2023-08-23T12:36:58.287Z,43.03
2023-08-23T12:39:26.282Z,43.20
2023-08-23T12:41:55.648Z,42.40
2023-08-23T12:44:23.619Z,41.93
2023-08-23T12:46:51.592Z,41.40
2023-08-23T12:49:19.615Z,40.92
2023-08-23T12:51:47.715Z,40.73
2023-08-23T12:54:15.730Z,40.33
2023-08-23T12:56:43.716Z,40.13
2023-08-23T12:59:13.061Z,39.89
2023-08-23T13:01:41.068Z,39.41
2023-08-23T13:04:09.107Z,39.42
2023-08-23T13:06:37.043Z,39.40
2023-08-23T13:09:06.454Z,39.19
2023-08-23T13:11:34.513Z,39.29
2023-08-23T13:14:02.534Z,39.28
2023-08-23T13:16:31.976Z,39.08
2023-08-23T13:19:00.371Z,38.61
2023-08-23T13:21:28.449Z,38.54
2023-08-23T13:23:59.475Z,38.32
2023-08-23T13:26:28.241Z,38.17
2023-08-23T13:28:56.214Z,38.16
2023-08-23T13:31:25.293Z,38.05
2023-08-23T13:33:54.761Z,37.94
2023-08-23T13:36:22.714Z,37.90
2023-08-23T13:38:50.689Z,37.94
2023-08-23T13:41:18.666Z,38.06
2023-08-23T13:43:46.619Z,38.09
2023-08-23T13:46:14.639Z,38.21
2023-08-23T13:48:45.253Z,38.24
2023-08-23T13:51:14.756Z,38.28
2023-08-23T13:53:44.764Z,38.40
2023-08-23T13:56:14.121Z,38.45
2023-08-23T13:58:42.232Z,38.42
2023-08-23T14:01:10.253Z,38.40
2023-08-23T14:03:38.234Z,38.39
2023-08-23T14:06:06.544Z,38.23
2023-08-23T14:08:35.875Z,37.88
2023-08-23T14:11:04.157Z,37.64
2023-08-23T14:13:32.167Z,37.53
2023-08-23T14:16:00.250Z,37.33
2023-08-23T14:18:28.364Z,37.25
2023-08-23T14:20:56.673Z,37.04
2023-08-23T14:23:24.634Z,36.77
2023-08-23T14:25:54.017Z,36.56
2023-08-23T14:28:22.086Z,36.50
2023-08-23T14:30:50.195Z,36.45
2023-08-23T14:33:18.262Z,36.47
2023-08-23T14:38:15.402Z,36.37
2023-08-23T14:40:44.086Z,36.33
2023-08-23T14:43:13.481Z,36.17
2023-08-23T14:45:42.475Z,36.44
2023-08-23T14:48:10.480Z,36.20
2023-08-23T14:50:38.454Z,36.40
2023-08-23T14:53:06.631Z,36.26
2023-08-23T14:55:35.685Z,36.16
2023-08-23T14:58:03.725Z,36.11
2023-08-23T15:00:34.506Z,36.10
2023-08-23T15:03:03.972Z,36.04
2023-08-23T15:05:32.116Z,36.02
2023-08-23T15:08:00.071Z,35.95
2023-08-23T15:10:28.082Z,35.93
2023-08-23T15:12:56.121Z,35.92
2023-08-23T15:15:24.100Z,35.90
2023-08-23T15:17:53.575Z,35.80
2023-08-23T15:20:21.745Z,35.76
2023-08-23T15:22:49.712Z,35.81
2023-08-23T15:25:18.423Z,35.90
2023-08-23T15:27:49.769Z,35.94
2023-08-23T15:30:17.957Z,35.88
2023-08-23T15:32:46.503Z,35.92
2023-08-23T15:35:15.869Z,35.85
2023-08-23T15:37:43.985Z,35.73
2023-08-23T15:40:12.806Z,35.67
2023-08-23T15:42:41.714Z,35.63
2023-08-23T15:45:10.361Z,35.56
2023-08-23T15:47:38.409Z,35.47
2023-08-23T15:50:07.409Z,35.39
2023-08-23T15:52:36.820Z,35.32
2023-08-23T15:55:05.679Z,35.36
2023-08-23T15:57:33.720Z,35.28
2023-08-23T16:00:01.704Z,35.31
2023-08-23T16:02:29.697Z,35.21
2023-08-23T16:04:57.692Z,35.16
2023-08-23T16:07:26.074Z,35.15
2023-08-23T16:09:55.987Z,35.06
2023-08-23T16:12:24.557Z,34.98
2023-08-23T16:14:52.538Z,34.92
2023-08-23T16:17:20.524Z,34.79
2023-08-23T16:19:48.511Z,34.63
2023-08-23T16:22:16.489Z,34.48
2023-08-23T16:24:44.479Z,34.26
2023-08-23T16:27:13.846Z,34.14
2023-08-23T16:29:41.848Z,33.94
2023-08-23T16:32:09.874Z,33.76
2023-08-23T16:34:37.988Z,33.58
2023-08-23T16:37:06.134Z,33.55
2023-08-23T16:39:34.166Z,33.40
2023-08-23T16:42:02.139Z,33.28
2023-08-23T16:44:31.456Z,33.11
2023-08-23T16:46:59.477Z,32.97
2023-08-23T16:49:27.482Z,32.74
2023-08-23T16:51:56.501Z,32.64
2023-08-23T16:54:24.546Z,32.52
2023-08-23T16:56:52.543Z,32.34
2023-08-23T16:59:20.488Z,32.16
2023-08-23T17:01:49.938Z,32.04
2023-08-23T17:04:17.961Z,31.87
2023-08-23T17:06:48.237Z,31.74
2023-08-23T17:09:16.912Z,31.55
2023-08-23T17:11:45.614Z,31.38
2023-08-23T17:14:13.595Z,31.15
2023-08-23T17:16:41.826Z,30.97
2023-08-23T17:19:11.212Z,30.70
2023-08-23T17:21:39.560Z,30.55
2023-08-23T17:24:07.781Z,30.42
2023-08-23T17:26:35.819Z,30.25
2023-08-23T17:29:03.761Z,30.10
2023-08-23T17:31:31.811Z,29.93
2023-08-23T17:33:59.846Z,29.70
2023-08-23T17:36:29.180Z,29.55
2023-08-23T17:38:57.405Z,29.33
2023-08-23T17:41:25.441Z,29.23
2023-08-23T17:43:54.953Z,29.06
2023-08-23T17:46:36.260Z,28.99
2023-08-23T17:49:04.644Z,28.87
2023-08-23T17:51:34.050Z,28.79
2023-08-23T17:54:02.065Z,28.64
2023-08-23T17:56:30.028Z,28.50
2023-08-23T17:58:58.032Z,28.39
2023-08-23T18:01:25.994Z,28.27
2023-08-23T18:03:53.962Z,28.33
2023-08-23T18:06:21.921Z,28.22
2023-08-23T18:08:51.256Z,28.29
2023-08-23T18:11:19.268Z,28.26
2023-08-23T18:13:47.262Z,28.21
2023-08-23T18:16:15.274Z,28.14
2023-08-23T18:18:43.311Z,28.11
2023-08-23T18:21:11.290Z,28.00
2023-08-23T18:23:39.299Z,27.96
2023-08-23T18:26:08.672Z,27.92
2023-08-23T18:28:36.667Z,27.86
2023-08-23T18:31:04.764Z,27.85
2023-08-23T18:33:36.279Z,27.76
2023-08-23T18:36:04.428Z,27.77
2023-08-23T18:38:32.438Z,27.82
2023-08-23T18:41:03.753Z,27.92
2023-08-23T18:43:33.401Z,27.99
2023-08-23T18:46:01.386Z,27.96
2023-08-23T18:48:29.431Z,28.05
2023-08-23T18:51:00.738Z,28.01
2023-08-23T18:53:28.821Z,28.01
2023-08-23T18:55:56.791Z,27.91
2023-08-23T18:58:24.804Z,27.91
2023-08-23T19:00:58.619Z,27.89
2023-08-23T19:03:27.567Z,27.84
2023-08-23T19:05:55.728Z,27.77
2023-08-23T19:08:23.729Z,27.75
2023-08-23T19:10:51.683Z,27.61
2023-08-23T19:13:19.696Z,27.48
2023-08-23T19:15:47.686Z,27.35
2023-08-23T19:18:17.126Z,27.35
2023-08-23T19:20:45.103Z,27.42
2023-08-23T19:23:13.085Z,27.45
2023-08-23T19:25:42.055Z,27.55
2023-08-23T19:28:10.058Z,27.64
2023-08-23T19:30:38.025Z,27.83
2023-08-23T19:33:06.195Z,27.96
2023-08-23T19:35:42.931Z,27.94
2023-08-23T19:38:10.943Z,28.15
2023-08-23T19:40:38.978Z,28.21
2023-08-23T19:43:07.048Z,27.95
2023-08-23T19:45:35.139Z,28.08
2023-08-23T19:48:20.519Z,28.07
2023-08-23T19:50:53.157Z,27.87
2023-08-23T19:53:21.114Z,28.01
2023-08-23T19:55:49.065Z,27.96
2023-08-23T19:58:19.889Z,27.88
2023-08-23T20:00:47.908Z,27.79
2023-08-23T20:03:16.077Z,27.71
2023-08-23T20:05:45.370Z,27.72
2023-08-23T20:08:14.703Z,27.74
2023-08-23T20:10:42.705Z,27.85
2023-08-23T20:13:10.695Z,28.04
2023-08-23T20:15:38.666Z,28.05
2023-08-23T20:18:06.760Z,28.09
2023-08-23T20:20:35.131Z,28.08
2023-08-23T20:23:03.094Z,28.08
2023-08-23T20:25:32.476Z,28.05
2023-08-23T20:28:00.426Z,28.07
2023-08-23T20:30:28.408Z,27.97
2023-08-23T20:32:56.461Z,27.98
2023-08-23T20:35:24.726Z,27.91
2023-08-23T20:37:52.730Z,27.97
2023-08-23T20:40:21.685Z,27.95
2023-08-23T20:42:51.386Z,27.86
2023-08-23T20:45:21.195Z,27.92
2023-08-23T20:47:49.808Z,28.04
2023-08-23T20:50:18.088Z,28.05
2023-08-23T20:52:46.508Z,28.24
2023-08-23T20:55:14.849Z,28.33
2023-08-23T20:57:42.821Z,28.39
2023-08-23T21:00:13.021Z,28.28
2023-08-23T21:02:41.017Z,28.05
2023-08-23T21:05:09.143Z,27.98
2023-08-23T21:07:37.167Z,27.87
2023-08-23T21:10:05.956Z,27.88
2023-08-23T21:12:33.887Z,27.88
2023-08-23T21:15:01.897Z,27.89
2023-08-23T21:17:31.323Z,27.92
2023-08-23T21:19:59.345Z,27.91
2023-08-23T21:22:27.394Z,27.98
2023-08-23T21:24:55.368Z,27.89
2023-08-23T21:27:23.370Z,27.96
2023-08-23T21:29:51.897Z,27.86
2023-08-23T21:32:19.896Z,27.69
2023-08-23T21:34:49.228Z,27.66
2023-08-23T21:37:17.223Z,27.72
2023-08-23T21:39:45.197Z,27.70
2023-08-23T21:42:13.168Z,27.72
2023-08-23T21:44:42.531Z,27.67
2023-08-23T21:47:11.537Z,27.59
2023-08-23T21:49:39.486Z,27.63
2023-08-23T21:52:08.850Z,27.61
2023-08-23T21:54:36.806Z,27.58
2023-08-23T21:57:05.170Z,27.47
2023-08-23T21:59:33.158Z,27.40
2023-08-23T22:02:01.136Z,27.40
2023-08-23T22:04:29.180Z,27.33
2023-08-23T22:06:57.142Z,27.25
2023-08-23T22:09:26.877Z,27.19
2023-08-23T22:11:55.028Z,27.18
2023-08-23T22:14:23.394Z,27.17
2023-08-23T22:16:51.407Z,27.14
2023-08-23T22:19:19.810Z,27.12
2023-08-23T22:21:48.614Z,27.07
2023-08-23T22:24:16.570Z,26.95
2023-08-23T22:26:45.973Z,26.97
2023-08-23T22:29:13.956Z,26.93
2023-08-23T22:31:41.925Z,26.90
2023-08-23T22:34:09.893Z,26.89
2023-08-23T22:36:37.855Z,26.79
2023-08-23T22:39:05.899Z,26.79
2023-08-23T22:41:33.892Z,26.73
2023-08-23T22:44:03.242Z,26.68
2023-08-23T22:46:32.624Z,26.68
2023-08-23T22:49:01.334Z,26.70
2023-08-23T22:51:29.452Z,26.64
2023-08-23T22:53:57.387Z,26.64
2023-08-23T22:56:25.379Z,26.46
2023-08-23T22:58:53.408Z,26.53
2023-08-23T23:01:22.859Z,26.68
2023-08-23T23:03:50.974Z,26.79
2023-08-23T23:06:19.007Z,26.84
2023-08-23T23:08:47.132Z,26.85
2023-08-23T23:11:15.150Z,26.96
2023-08-23T23:13:43.141Z,27.00
2023-08-23T23:16:11.267Z,27.03
2023-08-23T23:18:41.214Z,27.03
2023-08-23T23:21:09.185Z,27.03
2023-08-23T23:23:37.176Z,27.09
2023-08-23T23:26:05.109Z,27.12
2023-08-23T23:28:33.076Z,27.12
2023-08-23T23:31:06.525Z,27.12
2023-08-23T23:33:34.730Z,27.14
2023-08-23T23:36:04.088Z,27.17
2023-08-23T23:38:32.174Z,27.12
2023-08-23T23:41:03.430Z,27.18
2023-08-23T23:43:31.490Z,27.15
2023-08-23T23:45:59.797Z,27.09
2023-08-23T23:48:27.919Z,27.10
2023-08-23T23:50:55.894Z,27.08
2023-08-23T23:53:25.363Z,27.10
2023-08-23T23:55:53.299Z,27.16
2023-08-23T23:58:21.261Z,27.19
